METAR Formatted Surface Weather Observation
Issued by NWS

Home | Current Version | Previous Version | Text Only | Print | Product List | Glossary On
Versions: 1 2 3 4 5 6 7
000
SAUS42 KTAE 240443 COR
MTR1J0
METAR K1J0 240358Z AUTO 17004KT 10SM CLR 24/24 A3002 RMK AO2 SLP124
T02440239 $



USA.gov is the U.S. government's official web portal to all federal, state and local government web resources and services.